Latest Weather Observations for Point Wilson

IDV60801

Issued at 1:02 am EDT Monday 15 February 2016 (issued every 30 minutes, with the page automatically refreshed every 10 minutes)

About weather observations | Map of weather stations | Latest weather observations for VIC | Other Formats
Station Details ID: 087166 Name: POINT WILSON Lat: -38.10 Lon: 144.54 Height: 18.0 m
Data from the previous 72 hours. | See also: Recent months for locations in Victoria
Date/Time
EDT
Temp
°C
App
Temp
°C
Dew
Point
Rel
Hum
%
Delta-T
°C
Wind Press
QNH
hPa
Press
MSL
hPa
Rain
since 9 am
mm
Dir
 
Spd
km/h
Gust
km/h
Spd
kts
Gust
kts
15/01:00am - - - - - SW 19 24 10 13 - - -
15/12:30am - - - - - WSW 24 32 13 17 - - -
15/12:00am - - - - - WSW 26 32 14 17 - - -
 
Date/Time
EDT
Temp
°C
App
Temp
°C
Dew
Point
Rel
Hum
%
Delta-T
°C
Wind Press
QNH
hPa
Press
MSL
hPa
Rain
since 9 am
mm
Dir
 
Spd
km/h
Gust
km/h
Spd
kts
Gust
kts
14/11:30pm - - - - - WSW 20 30 11 16 - - -
14/11:00pm - - - - - SW 19 26 10 14 - - -
14/10:30pm - - - - - SSW 19 24 10 13 - - -
14/10:00pm - - - - - SSW 26 32 14 17 - - -
14/09:30pm - - - - - SSW 26 30 14 16 - - -
14/09:00pm - - - - - SSW 30 35 16 19 - - -
14/08:30pm - - - - - SSW 33 46 18 25 - - -
14/08:00pm - - - - - SSW 37 41 20 22 - - -
14/07:30pm - - - - - S 32 35 17 19 - - -
14/07:00pm - - - - - S 33 39 18 21 - - -
14/06:30pm - - - - - S 35 41 19 22 - - -
14/06:00pm - - - - - S 30 33 16 18 - - -
14/05:30pm - - - - - S 30 33 16 18 - - -
14/05:00pm - - - - - S 35 44 19 24 - - -
14/04:55pm - - - - - S 37 44 20 24 - - -
14/04:30pm - - - - - WSW 28 35 15 19 - - -
14/04:00pm - - - - - W 22 32 12 17 - - -
14/03:30pm - - - - - SSE 6 22 3 12 - - -
14/03:00pm - - - - - S 28 32 15 17 - - -
14/02:36pm - - - - - SSW 44 65 24 35 - - -
14/02:33pm - - - - - WSW 39 65 21 35 - - -
14/02:30pm - - - - - WSW 35 52 19 28 - - -
14/02:27pm - - - - - WSW 32 52 17 28 - - -
14/02:00pm - - - - - W 30 35 16 19 - - -
14/01:30pm - - - - - W 32 41 17 22 - - -
14/01:00pm - - - - - WSW 28 33 15 18 - - -
14/12:30pm - - - - - WSW 30 39 16 21 - - -
14/12:00pm - - - - - WSW 26 35 14 19 - - -
14/11:30am - - - - - W 26 35 14 19 - - -
14/11:00am - - - - - W 26 33 14 18 - - -
14/10:30am - - - - - W 24 32 13 17 - - -
14/10:00am - - - - - W 28 35 15 19 - - -
14/09:30am - - - - - W 20 30 11 16 - - -
14/09:00am - - - - - W 26 33 14 18 - - -
14/08:30am - - - - - W 20 26 11 14 - - -
14/08:00am - - - - - WNW 19 24 10 13 - - -
14/07:30am - - - - - NW 20 24 11 13 - - -
14/07:00am - - - - - NW 20 24 11 13 - - -
14/06:30am - - - - - WNW 20 26 11 14 - - -
14/06:00am - - - - - WNW 22 28 12 15 - - -
14/05:30am - - - - - NW 17 20 9 11 - - -
14/05:00am - - - - - WNW 22 26 12 14 - - -
14/04:30am - - - - - WNW 24 30 13 16 - - -
14/04:00am - - - - - WNW 20 30 11 16 - - -
14/03:30am - - - - - WSW 26 32 14 17 - - -
14/03:00am - - - - - W 22 28 12 15 - - -
14/02:30am - - - - - WSW 28 35 15 19 - - -
14/02:00am - - - - - WSW 28 33 15 18 - - -
14/01:30am - - - - - WSW 33 48 18 26 - - -
14/01:00am - - - - - W 37 44 20 24 - - -
14/12:30am - - - - - WSW 32 39 17 21 - - -
14/12:00am - - - - - WSW 35 44 19 24 - - -
 
Date/Time
EDT
Temp
°C
App
Temp
°C
Dew
Point
Rel
Hum
%
Delta-T
°C
Wind Press
QNH
hPa
Press
MSL
hPa
Rain
since 9 am
mm
Dir
 
Spd
km/h
Gust
km/h
Spd
kts
Gust
kts
13/11:30pm - - - - - WSW 33 41 18 22 - - -
13/11:00pm - - - - - WSW 32 39 17 21 - - -
13/10:30pm - - - - - WSW 33 43 18 23 - - -
13/10:09pm - - - - - W 30 41 16 22 - - -
13/10:00pm - - - - - S 17 22 9 12 - - -
13/09:30pm - - - - - S 26 30 14 16 - - -
13/09:00pm - - - - - S 26 30 14 16 - - -
13/08:30pm - - - - - S 26 32 14 17 - - -
13/08:00pm - - - - - S 24 30 13 16 - - -
13/07:30pm - - - - - S 26 32 14 17 - - -
13/07:00pm - - - - - S 30 35 16 19 - - -
13/06:30pm - - - - - S 32 37 17 20 - - -
13/06:00pm - - - - - S 32 35 17 19 - - -
13/05:30pm - - - - - S 30 35 16 19 - - -
13/05:00pm - - - - - S 35 39 19 21 - - -
13/04:30pm - - - - - S 32 35 17 19 - - -
13/04:00pm - - - - - S 32 37 17 20 - - -
13/03:30pm - - - - - S 33 39 18 21 - - -
13/03:00pm - - - - - S 32 37 17 20 - - -
13/02:30pm - - - - - S 30 37 16 20 - - -
13/02:00pm - - - - - S 24 37 13 20 - - -
13/01:51pm - - - - - SSW 37 41 20 22 - - -
13/01:30pm - - - - - SW 15 17 8 9 - - -
13/01:00pm - - - - - S 13 17 7 9 - - -
13/12:30pm - - - - - S 13 15 7 8 - - -
13/12:00pm - - - - - SW 13 19 7 10 - - -
13/11:30am - - - - - SW 19 24 10 13 - - -
13/11:00am - - - - - WSW 11 13 6 7 - - -
13/10:30am - - - - - SW 13 17 7 9 - - -
13/10:00am - - - - - WSW 17 24 9 13 - - -
13/09:30am - - - - - WSW 13 17 7 9 - - -
13/09:00am - - - - - WSW 20 24 11 13 - - -
13/08:30am - - - - - W 17 20 9 11 - - -
13/08:00am - - - - - WSW 22 32 12 17 - - -
13/07:30am - - - - - W 22 24 12 13 - - -
13/07:00am - - - - - W 24 26 13 14 - - -
13/06:30am - - - - - W 13 17 7 9 - - -
13/06:00am - - - - - WNW 13 17 7 9 - - -
13/05:30am - - - - - WNW 11 15 6 8 - - -
13/05:00am - - - - - WNW 6 9 3 5 - - -
13/04:30am - - - - - NW 11 13 6 7 - - -
13/04:00am - - - - - NNE 11 13 6 7 - - -
13/03:30am - - - - - N 13 17 7 9 - - -
13/03:00am - - - - - N 11 13 6 7 - - -
13/02:30am - - - - - NNW 7 9 4 5 - - -
13/02:00am - - - - - NNW 9 13 5 7 - - -
13/01:30am - - - - - NNW 11 13 6 7 - - -
13/01:00am - - - - - N 9 11 5 6 - - -
13/12:30am - - - - - NNW 7 9 4 5 - - -
13/12:00am - - - - - N 7 9 4 5 - - -
 
Date/Time
EDT
Temp
°C
App
Temp
°C
Dew
Point
Rel
Hum
%
Delta-T
°C
Wind Press
QNH
hPa
Press
MSL
hPa
Rain
since 9 am
mm
Dir
 
Spd
km/h
Gust
km/h
Spd
kts
Gust
kts
12/11:30pm - - - - - CALM 0 0 0 0 - - -
12/11:00pm - - - - - SSE 7 9 4 5 - - -
12/10:30pm - - - - - S 9 13 5 7 - - -
12/10:00pm - - - - - S 15 17 8 9 - - -
12/09:30pm - - - - - S 17 19 9 10 - - -
12/09:00pm - - - - - SSW 17 19 9 10 - - -
12/08:30pm - - - - - SSW 20 20 11 11 - - -
12/08:00pm - - - - - S 20 24 11 13 - - -
12/07:30pm - - - - - S 24 26 13 14 - - -
12/07:00pm - - - - - S 24 26 13 14 - - -
12/06:30pm - - - - - S 24 28 13 15 - - -
12/06:00pm - - - - - S 26 30 14 16 - - -
12/05:30pm - - - - - S 26 30 14 16 - - -
12/05:00pm - - - - - S 26 30 14 16 - - -
12/04:30pm - - - - - S 22 24 12 13 - - -
12/04:00pm - - - - - E 4 9 2 5 - - -
12/03:30pm - - - - - S 15 22 8 12 - - -
12/03:00pm - - - - - SSW 11 13 6 7 - - -
12/02:30pm - - - - - CALM 0 6 0 3 - - -
12/02:00pm - - - - - NNW 7 11 4 6 - - -
12/01:30pm - - - - - NNW 9 11 5 6 - - -
12/01:00pm - - - - - NNE 11 13 6 7 - - -
12/12:30pm - - - - - NE 11 15 6 8 - - -
12/12:00pm - - - - - ENE 13 17 7 9 - - -
12/11:30am - - - - - E 11 15 6 8 - - -
12/11:00am - - - - - ENE 11 15 6 8 - - -
12/10:30am - - - - - ENE 13 19 7 10 - - -
12/10:00am - - - - - E 13 17 7 9 - - -
12/09:30am - - - - - E 13 19 7 10 - - -
12/09:00am - - - - - SE 13 17 7 9 - - -
12/08:30am - - - - - SE 15 17 8 9 - - -
12/08:00am - - - - - ESE 15 19 8 10 - - -
12/07:30am - - - - - ESE 17 20 9 11 - - -
12/07:00am - - - - - SE 19 20 10 11 - - -
12/06:30am - - - - - SE 22 24 12 13 - - -
12/06:00am - - - - - SE 20 24 11 13 - - -
12/05:30am - - - - - SSE 19 24 10 13 - - -
12/05:00am - - - - - SSE 19 22 10 12 - - -
12/04:30am - - - - - S 20 24 11 13 - - -
12/04:00am - - - - - S 20 24 11 13 - - -
12/03:30am - - - - - S 22 24 12 13 - - -
12/03:00am - - - - - SSE 20 24 11 13 - - -
12/02:30am - - - - - SSE 19 22 10 12 - - -
12/02:00am - - - - - SSE 19 22 10 12 - - -
12/01:30am - - - - - SSE 17 20 9 11 - - -

Other Formats:

Comma delimited format used in spreadsheet applications
http://www.bom.gov.au/fwo/IDV60801/IDV60801.94847.axf

JavaScript Object Notation format (JSON) in row-major order
http://www.bom.gov.au/fwo/IDV60801/IDV60801.94847.json